createdAt,value
2022-10-14T00:02:05.216Z,18.00
2022-10-14T00:04:32.825Z,18.20
2022-10-14T00:07:03.213Z,19.08
2022-10-14T00:09:30.568Z,17.75
2022-10-14T00:11:57.879Z,18.10
2022-10-14T00:14:25.444Z,18.33
2022-10-14T00:16:55.773Z,18.30
2022-10-14T00:19:23.103Z,17.38
2022-10-14T00:21:50.739Z,17.83
2022-10-14T00:24:18.934Z,17.25
2022-10-14T00:26:46.992Z,17.40
2022-10-14T00:29:18.942Z,17.90
2022-10-14T00:31:47.272Z,16.77
2022-10-14T00:34:16.188Z,18.05
2022-10-14T00:36:47.196Z,18.38
2022-10-14T00:39:19.213Z,17.08
2022-10-14T00:41:46.722Z,17.48
2022-10-14T00:44:13.840Z,17.17
2022-10-14T00:46:47.844Z,16.02
2022-10-14T00:49:29.057Z,16.50
2022-10-14T00:52:02.823Z,16.27
2022-10-14T00:54:44.013Z,16.77
2022-10-14T00:57:12.041Z,16.48
2022-10-14T00:59:39.607Z,16.33
2022-10-14T01:02:07.217Z,15.25
2022-10-14T01:04:39.024Z,15.48
2022-10-14T01:07:30.335Z,15.77
2022-10-14T01:10:19.944Z,16.30
2022-10-14T01:13:29.336Z,15.20
2022-10-14T01:16:31.191Z,14.25
2022-10-14T01:19:07.155Z,15.60
2022-10-14T01:22:00.281Z,14.20
2022-10-14T01:25:05.132Z,14.02
2022-10-14T01:28:17.679Z,14.45
2022-10-14T01:30:50.282Z,14.88
2022-10-14T01:36:21.225Z,13.95
2022-10-14T01:39:11.015Z,13.60
2022-10-14T01:41:49.218Z,13.82
2022-10-14T01:44:19.609Z,13.27
2022-10-14T01:46:55.325Z,13.50
2022-10-14T01:49:36.982Z,13.10
2022-10-14T01:52:21.171Z,13.98
2022-10-14T01:54:53.458Z,14.70
2022-10-14T01:57:28.116Z,14.25
2022-10-14T01:59:57.071Z,13.90
2022-10-14T02:02:25.621Z,14.77
2022-10-14T02:04:52.987Z,15.73
2022-10-14T02:07:59.234Z,16.60
2022-10-14T02:10:40.783Z,16.13
2022-10-14T02:13:39.656Z,15.57
2022-10-14T02:16:21.413Z,15.85
2022-10-14T02:19:16.123Z,16.83
2022-10-14T02:22:00.390Z,15.48
2022-10-14T02:24:53.113Z,16.43
2022-10-14T02:27:25.104Z,17.55
2022-10-14T02:29:56.370Z,19.15
2022-10-14T02:32:28.180Z,17.67
2022-10-14T02:35:00.208Z,17.77
2022-10-14T02:38:08.519Z,18.27
2022-10-14T02:40:45.488Z,20.23
2022-10-14T02:43:12.993Z,20.00
2022-10-14T02:45:43.707Z,20.63
2022-10-14T02:48:51.129Z,21.23
2022-10-14T02:51:19.705Z,21.30
2022-10-14T02:53:46.878Z,19.67
2022-10-14T02:56:14.769Z,19.23
2022-10-14T02:58:42.410Z,17.75
2022-10-14T03:01:09.769Z,20.83
2022-10-14T03:03:37.122Z,20.15
2022-10-14T03:06:04.796Z,19.55
2022-10-14T03:08:33.953Z,19.00
2022-10-14T03:11:01.873Z,17.92
2022-10-14T03:13:29.676Z,18.80
2022-10-14T03:16:00.762Z,18.35
2022-10-14T03:19:43.273Z,17.70
2022-10-14T03:26:02.711Z,17.92
2022-10-14T03:28:36.117Z,18.73
2022-10-14T03:31:20.681Z,19.13
2022-10-14T03:34:06.467Z,19.90
2022-10-14T03:36:35.263Z,21.10
2022-10-14T03:39:16.339Z,18.13
2022-10-14T03:41:48.654Z,17.90
2022-10-14T03:44:19.038Z,19.33
2022-10-14T03:47:06.341Z,18.85
2022-10-14T03:49:34.355Z,19.17
2022-10-14T03:52:09.432Z,19.20
2022-10-14T03:54:38.180Z,18.80
2022-10-14T03:57:06.254Z,18.98
2022-10-14T03:59:41.995Z,20.05
2022-10-14T04:02:09.638Z,19.38
2022-10-14T04:04:40.511Z,18.42
2022-10-14T04:07:29.608Z,19.02
2022-10-14T04:09:58.237Z,18.75
2022-10-14T04:12:26.380Z,19.95
2022-10-14T04:15:05.324Z,18.75
2022-10-14T04:21:28.430Z,18.80
2022-10-14T04:23:55.798Z,18.50
2022-10-14T04:26:35.520Z,19.75
2022-10-14T04:29:04.382Z,19.48
2022-10-14T04:31:40.080Z,18.92
2022-10-14T04:34:07.248Z,19.52
2022-10-14T04:36:38.719Z,18.85
2022-10-14T04:39:19.490Z,19.85
2022-10-14T04:41:47.722Z,19.45
2022-10-14T04:44:18.560Z,18.75
2022-10-14T04:47:08.663Z,17.83
2022-10-14T04:49:37.783Z,19.67
2022-10-14T04:52:14.004Z,20.80
2022-10-14T04:55:08.193Z,21.77
2022-10-14T04:57:45.015Z,20.02
2022-10-14T05:00:16.145Z,20.35
2022-10-14T05:02:49.272Z,19.52
2022-10-14T05:05:29.995Z,20.23
2022-10-14T05:08:00.483Z,21.25
2022-10-14T05:10:44.618Z,21.23
2022-10-14T05:13:24.192Z,21.55
2022-10-14T05:16:00.478Z,21.10
2022-10-14T05:18:37.410Z,23.35
2022-10-14T05:25:22.915Z,23.58
2022-10-14T05:28:35.201Z,24.45
2022-10-14T05:31:30.918Z,24.50
2022-10-14T05:34:07.722Z,23.33
2022-10-14T05:36:50.350Z,24.27
2022-10-14T05:41:04.891Z,23.65
2022-10-14T06:10:11.401Z,24.90
2022-10-14T06:15:57.965Z,25.08
2022-10-14T06:18:38.668Z,24.80
2022-10-14T06:21:44.308Z,24.58
2022-10-14T06:24:34.537Z,24.27
2022-10-14T06:27:15.643Z,24.30
2022-10-14T06:29:42.998Z,23.83
2022-10-14T06:32:20.823Z,26.58
2022-10-14T06:34:48.197Z,26.27
2022-10-14T06:37:15.625Z,23.42
2022-10-14T06:39:45.187Z,23.40
2022-10-14T06:42:19.973Z,23.30
2022-10-14T06:44:47.217Z,23.40
2022-10-14T06:47:14.449Z,23.58
2022-10-14T06:49:41.900Z,23.35
2022-10-14T06:52:09.855Z,23.88
2022-10-14T06:54:39.599Z,22.25
2022-10-14T06:57:13.832Z,23.02
2022-10-14T06:59:41.122Z,22.13
2022-10-14T07:02:10.814Z,21.83
2022-10-14T07:04:40.234Z,22.00
2022-10-14T07:07:08.744Z,22.85
2022-10-14T07:09:36.174Z,23.58
2022-10-14T07:12:03.827Z,22.27
2022-10-14T07:14:31.819Z,22.75
2022-10-14T07:17:00.570Z,22.20
2022-10-14T07:19:27.824Z,22.45
2022-10-14T07:21:55.053Z,22.10
2022-10-14T07:24:22.367Z,23.13
2022-10-14T07:26:49.717Z,22.05
2022-10-14T07:29:17.431Z,21.63
2022-10-14T07:31:47.411Z,21.38
2022-10-14T07:34:14.888Z,21.35
2022-10-14T07:36:42.313Z,22.02
2022-10-14T07:39:28.994Z,21.27
2022-10-14T07:42:02.855Z,21.40
2022-10-14T07:44:30.033Z,20.67
2022-10-14T07:47:07.018Z,21.17
2022-10-14T07:49:34.624Z,20.27
2022-10-14T07:52:02.713Z,20.30
2022-10-14T07:55:11.480Z,21.13
2022-10-14T07:57:42.259Z,20.33
2022-10-14T08:00:10.812Z,20.50
2022-10-14T08:02:41.223Z,20.15
2022-10-14T08:05:33.083Z,21.42
2022-10-14T08:07:58.746Z,20.35
2022-10-14T08:10:26.272Z,20.13
2022-10-14T08:12:53.482Z,20.17
2022-10-14T08:15:21.592Z,20.30
2022-10-14T08:17:48.743Z,20.17
2022-10-14T08:20:16.372Z,20.30
2022-10-14T08:22:43.836Z,20.27
2022-10-14T08:25:11.641Z,19.70
2022-10-14T08:27:50.797Z,20.25
2022-10-14T08:30:28.482Z,20.00
2022-10-14T08:32:56.123Z,20.65
2022-10-14T08:35:24.166Z,19.58
2022-10-14T08:38:02.735Z,19.17
2022-10-14T08:40:44.926Z,20.10
2022-10-14T08:43:31.321Z,20.23
2022-10-14T08:46:15.697Z,19.33
2022-10-14T08:48:44.818Z,19.73
2022-10-14T08:51:44.725Z,18.85
2022-10-14T08:54:23.540Z,19.25
2022-10-14T08:56:54.660Z,21.05
2022-10-14T08:59:25.447Z,20.73
2022-10-14T09:02:03.767Z,19.63
2022-10-14T09:04:36.212Z,20.33
2022-10-14T09:07:04.896Z,21.05
2022-10-14T09:09:46.931Z,20.65
2022-10-14T09:12:25.823Z,21.20
2022-10-14T09:15:45.839Z,20.75
2022-10-14T09:18:40.122Z,19.48
2022-10-14T09:21:51.801Z,21.10
2022-10-14T09:24:28.977Z,20.40
2022-10-14T09:27:12.671Z,20.42
2022-10-14T09:29:53.023Z,21.55
2022-10-14T09:32:46.889Z,20.58
2022-10-14T09:35:30.693Z,19.10
2022-10-14T09:38:20.004Z,19.98
2022-10-14T09:40:58.418Z,20.83
2022-10-14T09:43:30.101Z,19.27
2022-10-14T09:46:04.098Z,18.00
2022-10-14T09:48:46.590Z,18.98
2022-10-14T09:51:34.045Z,17.70
2022-10-14T09:54:05.119Z,17.10
2022-10-14T09:56:42.451Z,14.73
2022-10-14T09:59:22.547Z,14.35
2022-10-14T10:01:53.017Z,8.75
2022-10-14T10:04:43.088Z,3.95
2022-10-14T10:07:33.216Z,4.13
2022-10-14T10:10:17.429Z,4.22
2022-10-14T10:12:47.352Z,3.30
2022-10-14T10:15:21.501Z,3.92
2022-10-14T10:18:29.143Z,3.00
2022-10-14T10:29:54.389Z,2.50
2022-10-14T10:51:05.449Z,2.13
2022-10-14T10:54:16.888Z,2.15
2022-10-14T10:58:08.985Z,2.50
2022-10-14T11:01:07.884Z,2.38
2022-10-14T11:13:00.300Z,1.90
2022-10-14T11:16:23.674Z,2.20
2022-10-14T11:20:16.442Z,3.08
2022-10-14T11:39:54.002Z,2.10
2022-10-14T11:52:06.981Z,2.08
2022-10-14T11:55:33.433Z,2.40
2022-10-14T12:07:26.079Z,2.60
2022-10-14T12:11:44.754Z,2.33
2022-10-14T14:59:40.510Z,18.67
2022-10-14T16:49:07.770Z,7.97
2022-10-14T16:57:46.084Z,8.25
2022-10-14T17:26:13.208Z,17.08
2022-10-14T17:30:42.053Z,17.48
2022-10-14T17:33:19.148Z,17.73
2022-10-14T17:35:46.534Z,18.95
2022-10-14T17:38:15.901Z,18.70
2022-10-14T17:40:46.471Z,20.38
2022-10-14T17:43:23.139Z,20.98
2022-10-14T17:45:50.300Z,21.30
2022-10-14T17:48:18.566Z,20.80
2022-10-14T17:50:48.845Z,20.75
2022-10-14T17:53:16.250Z,21.27
2022-10-14T17:55:43.439Z,22.05
2022-10-14T17:58:11.738Z,22.88
2022-10-14T18:00:39.761Z,23.27
2022-10-14T18:03:08.581Z,24.20
2022-10-14T18:05:38.147Z,24.98
2022-10-14T18:08:05.686Z,24.90
2022-10-14T18:10:35.791Z,24.90
2022-10-14T18:13:13.012Z,27.20
2022-10-14T18:15:40.843Z,25.52
2022-10-14T18:18:08.561Z,25.00
2022-10-14T18:20:37.749Z,25.48
2022-10-14T18:23:05.006Z,25.80
2022-10-14T18:25:35.363Z,25.77
2022-10-14T18:28:07.258Z,26.95
2022-10-14T18:30:37.572Z,27.77
2022-10-14T18:33:13.351Z,26.70
2022-10-14T18:35:44.052Z,27.58
2022-10-14T18:38:14.144Z,27.15
2022-10-14T18:40:41.496Z,27.27
2022-10-14T18:43:10.734Z,25.95
2022-10-14T18:45:37.972Z,27.85
2022-10-14T18:48:05.554Z,26.20
2022-10-14T18:50:32.906Z,26.65
2022-10-14T18:53:00.654Z,27.33
2022-10-14T18:55:28.031Z,27.48
2022-10-14T18:57:55.508Z,27.52
2022-10-14T19:00:22.829Z,25.95
2022-10-14T19:02:50.114Z,27.00
2022-10-14T19:05:36.268Z,26.77
2022-10-14T19:36:15.470Z,21.63
2022-10-14T19:38:58.150Z,21.38
2022-10-14T19:41:43.130Z,18.98
2022-10-14T19:47:17.014Z,17.38
2022-10-14T20:58:09.770Z,13.82
2022-10-14T21:25:48.484Z,13.52
2022-10-14T21:29:13.866Z,13.80
2022-10-14T21:31:41.264Z,12.60
2022-10-14T21:34:26.910Z,12.05
2022-10-14T21:36:54.258Z,13.23
2022-10-14T21:39:24.179Z,12.52
2022-10-14T21:41:52.219Z,12.20
2022-10-14T21:57:26.496Z,12.95
2022-10-14T22:43:01.408Z,11.68
2022-10-14T22:45:28.657Z,12.02
2022-10-14T22:47:55.865Z,12.25
2022-10-14T22:50:23.113Z,11.27
2022-10-14T22:52:50.324Z,11.80
2022-10-14T23:12:05.722Z,11.60
2022-10-14T23:14:33.189Z,10.77
2022-10-14T23:17:00.411Z,11.43
2022-10-14T23:19:27.744Z,11.40
2022-10-14T23:21:54.941Z,10.70
2022-10-14T23:50:38.002Z,10.45
